createdAt,value
2018-01-24T00:00:19.447Z,95.79
2018-01-24T00:02:47.539Z,96.04
2018-01-24T00:05:15.609Z,96.07
2018-01-24T00:07:43.624Z,95.93
2018-01-24T00:10:12.198Z,95.86
2018-01-24T00:12:40.242Z,96.24
2018-01-24T00:15:08.411Z,96.63
2018-01-24T00:17:37.310Z,96.77
2018-01-24T00:20:05.378Z,96.61
2018-01-24T00:22:33.261Z,96.37
2018-01-24T00:25:01.168Z,96.15
2018-01-24T00:27:29.266Z,96.02
2018-01-24T00:29:57.272Z,96.32
2018-01-24T00:32:25.327Z,96.58
2018-01-24T00:34:53.221Z,96.44
2018-01-24T00:37:21.129Z,96.29
2018-01-24T00:39:49.003Z,96.08
2018-01-24T00:42:17.692Z,95.84
2018-01-24T00:44:45.955Z,95.67
2018-01-24T00:47:13.922Z,95.55
2018-01-24T00:49:42.018Z,95.21
2018-01-24T00:52:09.821Z,95.34
2018-01-24T00:54:37.887Z,95.42
2018-01-24T00:57:07.018Z,95.33
2018-01-24T00:59:34.916Z,95.12
2018-01-24T01:02:02.736Z,94.88
2018-01-24T01:04:32.460Z,94.93
2018-01-24T01:07:00.458Z,94.72
2018-01-24T01:09:28.384Z,94.66
2018-01-24T01:11:56.254Z,94.74
2018-01-24T01:14:24.291Z,94.78
2018-01-24T01:16:53.254Z,94.68
2018-01-24T01:19:21.256Z,94.48
2018-01-24T01:21:49.327Z,94.10
2018-01-24T01:24:17.395Z,94.03
2018-01-24T01:26:45.479Z,93.76
2018-01-24T01:29:13.491Z,93.73
2018-01-24T01:31:41.475Z,94.19
2018-01-24T01:34:09.451Z,94.16
2018-01-24T01:36:37.535Z,93.89
2018-01-24T01:39:05.422Z,93.95
2018-01-24T01:41:33.488Z,93.83
2018-01-24T01:44:01.762Z,93.32
2018-01-24T01:46:30.252Z,93.81
2018-01-24T01:48:58.319Z,93.50
2018-01-24T01:51:27.210Z,93.01
2018-01-24T01:53:55.893Z,93.61
2018-01-24T01:56:23.726Z,93.80
2018-01-24T01:58:53.289Z,93.82
2018-01-24T02:01:21.326Z,93.48
2018-01-24T02:03:49.314Z,93.45
2018-01-24T02:06:17.199Z,93.83
2018-01-24T02:08:45.110Z,94.09
2018-01-24T02:11:14.481Z,94.21
2018-01-24T02:13:42.613Z,93.96
2018-01-24T02:16:10.696Z,93.94
2018-01-24T02:18:38.570Z,93.90
2018-01-24T02:21:06.714Z,93.85
2018-01-24T02:23:34.604Z,94.39
2018-01-24T02:26:02.791Z,94.10
2018-01-24T02:28:31.492Z,94.00
2018-01-24T02:30:59.510Z,94.04
2018-01-24T02:33:27.421Z,94.06
2018-01-24T02:35:55.290Z,93.60
2018-01-24T02:38:30.055Z,93.30
2018-01-24T02:40:58.046Z,93.42
2018-01-24T02:43:25.913Z,93.29
2018-01-24T02:45:53.908Z,92.97
2018-01-24T02:48:21.795Z,93.27
2018-01-24T02:50:49.663Z,93.19
2018-01-24T02:53:17.712Z,93.43
2018-01-24T02:55:45.775Z,93.35
2018-01-24T02:58:13.670Z,93.39
2018-01-24T03:00:41.835Z,93.24
2018-01-24T03:03:09.898Z,93.14
2018-01-24T03:05:37.979Z,93.30
2018-01-24T03:08:05.915Z,93.45
2018-01-24T03:10:34.575Z,92.81
2018-01-24T03:13:03.106Z,92.67
2018-01-24T03:15:30.834Z,92.93
2018-01-24T03:17:58.711Z,93.09
2018-01-24T03:20:27.393Z,93.16
2018-01-24T03:22:55.404Z,93.57
2018-01-24T03:25:23.875Z,92.92
2018-01-24T03:27:51.900Z,92.11
2018-01-24T03:30:19.855Z,92.28
2018-01-24T03:32:47.756Z,93.03
2018-01-24T03:35:15.723Z,93.06
2018-01-24T03:37:44.646Z,92.80
2018-01-24T03:40:12.538Z,92.90
2018-01-24T03:42:40.519Z,92.46
2018-01-24T03:45:08.456Z,92.02
2018-01-24T03:47:36.318Z,92.03
2018-01-24T03:50:04.204Z,91.75
2018-01-24T03:52:32.666Z,92.49
2018-01-24T03:55:00.740Z,92.61
2018-01-24T03:57:28.637Z,92.34
2018-01-24T03:59:57.509Z,92.73
2018-01-24T04:02:25.532Z,92.95
2018-01-24T04:04:54.255Z,92.57
2018-01-24T04:07:22.329Z,92.74
2018-01-24T04:09:50.399Z,92.93
2018-01-24T04:12:18.323Z,92.84
2018-01-24T04:14:46.191Z,92.95
2018-01-24T04:17:14.808Z,93.48
2018-01-24T04:19:43.325Z,93.49
2018-01-24T04:22:11.340Z,93.69
2018-01-24T04:24:39.261Z,93.43
2018-01-24T04:27:07.113Z,92.93
2018-01-24T04:29:35.282Z,92.60
2018-01-24T04:32:03.303Z,92.83
2018-01-24T04:34:31.426Z,93.01
2018-01-24T04:36:59.308Z,93.24
2018-01-24T04:39:28.410Z,93.45
2018-01-24T04:41:56.324Z,93.69
2018-01-24T04:44:24.292Z,94.01
2018-01-24T04:46:52.183Z,94.02
2018-01-24T04:49:20.250Z,93.84
2018-01-24T04:51:48.336Z,94.05
2018-01-24T04:54:16.758Z,94.25
2018-01-24T04:56:44.539Z,94.28
2018-01-24T04:59:12.356Z,93.98
2018-01-24T05:01:40.216Z,93.46
2018-01-24T05:04:09.315Z,93.16
2018-01-24T05:06:38.316Z,93.12
2018-01-24T05:09:07.185Z,93.32
2018-01-24T05:11:35.330Z,93.37
2018-01-24T05:14:03.422Z,93.42
2018-01-24T05:16:31.415Z,93.32
2018-01-24T05:19:00.757Z,93.30
2018-01-24T05:21:30.432Z,93.34
2018-01-24T05:23:58.506Z,93.70
2018-01-24T05:26:26.574Z,94.10
2018-01-24T05:28:54.585Z,94.07
2018-01-24T05:31:22.797Z,93.76
2018-01-24T05:33:51.308Z,93.96
2018-01-24T05:36:19.376Z,93.63
2018-01-24T05:38:48.262Z,93.42
2018-01-24T05:41:16.334Z,93.36
2018-01-24T05:43:44.423Z,93.62
2018-01-24T05:46:12.339Z,93.55
2018-01-24T05:48:40.905Z,93.38
2018-01-24T05:51:08.752Z,93.23
2018-01-24T05:53:36.796Z,93.25
2018-01-24T05:56:05.245Z,92.81
2018-01-24T05:58:33.001Z,92.82
2018-01-24T06:01:01.090Z,93.41
2018-01-24T06:03:29.080Z,93.56
2018-01-24T06:05:57.725Z,93.67
2018-01-24T06:08:26.661Z,93.54
2018-01-24T06:10:54.585Z,93.62
2018-01-24T06:13:22.824Z,93.54
2018-01-24T06:15:50.870Z,93.54
2018-01-24T06:18:19.356Z,93.37
2018-01-24T06:20:48.045Z,93.13
2018-01-24T06:23:16.094Z,92.85
2018-01-24T06:25:43.935Z,92.51
2018-01-24T06:28:11.908Z,92.43
2018-01-24T06:30:39.637Z,93.22
2018-01-24T06:33:07.486Z,93.61
2018-01-24T06:35:36.141Z,93.23
2018-01-24T06:38:04.044Z,92.78
2018-01-24T06:40:32.613Z,92.65
2018-01-24T06:43:01.715Z,92.24
2018-01-24T06:45:29.767Z,91.89
2018-01-24T06:47:57.872Z,91.97
2018-01-24T06:50:25.742Z,91.97
2018-01-24T06:52:53.646Z,92.30
2018-01-24T06:55:21.666Z,92.45
2018-01-24T06:57:50.435Z,92.80
2018-01-24T07:00:19.858Z,93.34
2018-01-24T07:02:47.887Z,93.49
2018-01-24T07:05:16.110Z,93.39
2018-01-24T07:07:44.179Z,93.44
2018-01-24T07:10:12.187Z,93.21
2018-01-24T07:12:52.402Z,92.67
2018-01-24T07:15:20.472Z,92.26
2018-01-24T07:17:48.514Z,91.94
2018-01-24T07:20:16.381Z,91.75
2018-01-24T07:22:44.249Z,91.81
2018-01-24T07:25:12.119Z,91.63
2018-01-24T07:27:40.139Z,91.27
2018-01-24T07:30:08.126Z,90.27
2018-01-24T07:32:36.261Z,88.77
2018-01-24T07:35:04.329Z,86.48
2018-01-24T07:37:32.610Z,87.42
2018-01-24T07:40:00.539Z,88.41
2018-01-24T07:42:28.411Z,80.96
2018-01-24T07:44:56.324Z,73.71
2018-01-24T07:47:24.196Z,75.35
2018-01-24T07:49:52.966Z,72.65
2018-01-24T07:52:20.844Z,76.20
2018-01-24T07:54:48.909Z,81.54
2018-01-24T07:57:18.419Z,83.31
2018-01-24T07:59:46.479Z,85.67
2018-01-24T08:02:14.393Z,86.57
2018-01-24T08:04:42.489Z,86.11
2018-01-24T08:07:10.557Z,84.70
2018-01-24T08:09:38.672Z,84.29
2018-01-24T08:12:06.585Z,81.33
2018-01-24T08:14:34.479Z,80.54
2018-01-24T08:17:02.475Z,79.03
2018-01-24T08:19:30.535Z,79.02
2018-01-24T08:21:58.409Z,77.27
2018-01-24T08:24:26.504Z,79.54
2018-01-24T08:26:54.457Z,80.43
2018-01-24T08:29:22.532Z,81.12
2018-01-24T08:31:50.960Z,80.99
2018-01-24T08:34:18.978Z,79.00
2018-01-24T08:36:46.678Z,79.10
2018-01-24T08:39:14.674Z,76.75
2018-01-24T08:41:42.638Z,76.98
2018-01-24T08:44:10.563Z,78.02
2018-01-24T08:46:39.333Z,77.36
2018-01-24T08:49:07.413Z,78.09
2018-01-24T08:51:35.488Z,78.38
2018-01-24T08:54:04.225Z,77.76
2018-01-24T08:56:32.370Z,79.56
2018-01-24T08:59:00.233Z,79.48
2018-01-24T09:01:28.150Z,76.85
2018-01-24T09:03:56.252Z,75.08
2018-01-24T09:06:24.912Z,75.32
2018-01-24T09:08:53.056Z,75.15
2018-01-24T09:11:21.047Z,74.96
2018-01-24T09:13:49.969Z,75.17
2018-01-24T09:16:18.679Z,76.27
2018-01-24T09:18:46.546Z,75.38
2018-01-24T09:21:14.506Z,77.36
2018-01-24T09:23:42.367Z,77.92
2018-01-24T09:26:10.419Z,77.34
2018-01-24T09:28:38.613Z,78.39
2018-01-24T09:31:06.377Z,78.27
2018-01-24T09:33:34.271Z,78.56
2018-01-24T09:36:02.015Z,79.12
2018-01-24T09:38:30.007Z,78.83
2018-01-24T09:40:58.149Z,78.20
2018-01-24T09:43:26.217Z,78.44
2018-01-24T09:45:54.159Z,78.69
2018-01-24T09:48:21.969Z,78.73
2018-01-24T09:50:49.992Z,78.84
2018-01-24T09:53:18.058Z,80.63
2018-01-24T09:55:46.587Z,80.11
2018-01-24T09:58:15.710Z,80.96
2018-01-24T10:00:43.809Z,82.02
2018-01-24T10:03:11.733Z,83.58
2018-01-24T10:05:39.619Z,82.76
2018-01-24T10:08:07.451Z,82.52
2018-01-24T10:10:35.736Z,81.13
2018-01-24T10:13:03.629Z,81.95
2018-01-24T10:15:32.432Z,82.25
2018-01-24T10:18:00.563Z,82.24
2018-01-24T10:20:28.995Z,81.70
2018-01-24T10:22:57.113Z,80.25
2018-01-24T10:25:25.379Z,78.21
2018-01-24T10:27:53.267Z,80.11
2018-01-24T10:30:21.331Z,79.96
2018-01-24T10:32:49.402Z,78.69
2018-01-24T10:35:17.471Z,78.24
2018-01-24T10:37:45.359Z,78.33
2018-01-24T10:40:13.381Z,79.01
2018-01-24T10:42:41.995Z,78.93
2018-01-24T10:45:09.940Z,79.03
2018-01-24T10:47:38.753Z,77.97
2018-01-24T10:50:06.828Z,77.95
2018-01-24T10:52:35.294Z,77.64
2018-01-24T10:55:03.357Z,77.61
2018-01-24T10:57:31.868Z,77.55
2018-01-24T10:59:59.791Z,71.90
2018-01-24T11:02:27.765Z,74.38
2018-01-24T11:04:55.876Z,71.17
2018-01-24T11:07:23.945Z,70.72
2018-01-24T11:09:51.935Z,71.30
2018-01-24T11:12:20.496Z,68.68
2018-01-24T11:14:48.466Z,69.36
2018-01-24T11:17:16.309Z,70.38
2018-01-24T11:19:44.408Z,69.23
2018-01-24T11:22:12.610Z,63.92
2018-01-24T11:24:40.689Z,65.49
2018-01-24T11:27:08.707Z,65.43
2018-01-24T11:29:36.745Z,67.87
2018-01-24T11:32:04.638Z,69.25
2018-01-24T11:34:32.739Z,69.33
2018-01-24T11:37:00.808Z,69.30
2018-01-24T11:39:28.879Z,68.35
2018-01-24T11:41:56.957Z,66.14
2018-01-24T11:44:25.848Z,65.55
2018-01-24T11:46:53.917Z,65.36
2018-01-24T11:49:21.997Z,65.75
2018-01-24T11:51:50.060Z,63.25
2018-01-24T11:54:18.131Z,61.62
2018-01-24T11:56:46.877Z,62.89
2018-01-24T11:59:14.952Z,62.98
2018-01-24T12:01:43.064Z,64.04
2018-01-24T12:04:11.120Z,65.35
2018-01-24T12:06:39.206Z,67.52
2018-01-24T12:09:07.274Z,66.76
2018-01-24T12:14:02.400Z,65.53
2018-01-24T12:16:30.149Z,63.84
2018-01-24T12:18:58.040Z,64.33
2018-01-24T12:21:26.158Z,62.64
2018-01-24T12:23:54.692Z,62.04
2018-01-24T12:26:22.740Z,63.36
2018-01-24T12:28:51.489Z,63.92
2018-01-24T12:31:19.498Z,61.58
2018-01-24T12:33:47.568Z,60.83
2018-01-24T12:36:15.660Z,61.43
2018-01-24T12:38:43.731Z,61.89
2018-01-24T12:41:11.668Z,61.73
2018-01-24T12:43:39.501Z,62.71
2018-01-24T12:46:07.547Z,61.97
2018-01-24T12:48:35.593Z,59.45
2018-01-24T12:51:03.700Z,61.09
2018-01-24T12:53:31.755Z,63.40
2018-01-24T12:55:59.770Z,65.30
2018-01-24T12:58:28.614Z,61.58
2018-01-24T13:00:56.588Z,60.85
2018-01-24T13:03:24.644Z,60.36
2018-01-24T13:05:52.545Z,60.42
2018-01-24T13:08:20.391Z,61.12
2018-01-24T13:10:48.322Z,61.15
2018-01-24T13:13:16.061Z,62.95
2018-01-24T13:15:43.798Z,61.85
2018-01-24T13:18:11.858Z,62.27
2018-01-24T13:20:39.915Z,64.76
2018-01-24T13:23:07.846Z,64.38
2018-01-24T13:25:35.679Z,65.94
2018-01-24T13:28:04.271Z,64.34
2018-01-24T13:30:31.996Z,64.44
2018-01-24T13:32:59.689Z,64.67
2018-01-24T13:35:27.481Z,65.04
2018-01-24T13:37:55.164Z,65.99
2018-01-24T13:40:22.903Z,65.94
2018-01-24T13:42:50.663Z,67.34
2018-01-24T13:45:18.367Z,67.87
2018-01-24T13:47:46.125Z,67.55
2018-01-24T13:50:13.832Z,67.16
2018-01-24T13:52:41.596Z,67.67
2018-01-24T13:55:09.295Z,67.33
2018-01-24T13:57:37.040Z,67.44
2018-01-24T14:00:04.783Z,66.89
2018-01-24T14:02:32.751Z,68.16
2018-01-24T14:05:00.560Z,68.26
2018-01-24T14:07:28.332Z,67.33
2018-01-24T14:09:56.110Z,68.96
2018-01-24T14:12:23.872Z,68.18
2018-01-24T14:14:51.683Z,68.11
2018-01-24T14:17:19.412Z,69.57
2018-01-24T14:19:47.183Z,69.69
2018-01-24T14:22:14.990Z,69.26
2018-01-24T14:24:42.845Z,70.82
2018-01-24T14:27:10.741Z,71.15
2018-01-24T14:29:38.645Z,71.57
2018-01-24T14:32:06.378Z,72.41
2018-01-24T14:34:34.404Z,72.99
2018-01-24T14:37:02.143Z,73.26
2018-01-24T14:39:29.917Z,75.33
2018-01-24T14:41:57.680Z,76.54
2018-01-24T14:44:25.408Z,76.77
2018-01-24T14:46:53.214Z,75.35
2018-01-24T14:49:20.929Z,76.66
2018-01-24T14:51:48.677Z,76.90
2018-01-24T14:54:16.540Z,76.71
2018-01-24T14:56:44.660Z,77.84
2018-01-24T14:59:12.364Z,79.04
2018-01-24T15:01:40.197Z,79.08
2018-01-24T15:04:08.112Z,79.04
2018-01-24T15:06:35.890Z,79.27
2018-01-24T15:09:03.776Z,79.03
2018-01-24T15:11:31.594Z,79.98
2018-01-24T15:13:59.403Z,79.41
2018-01-24T15:16:27.136Z,80.82
2018-01-24T15:18:54.962Z,80.90
2018-01-24T15:21:22.741Z,81.22
2018-01-24T15:23:50.503Z,81.55
2018-01-24T15:26:18.225Z,81.59
2018-01-24T15:28:45.995Z,82.28
2018-01-24T15:31:13.705Z,83.40
2018-01-24T15:33:41.465Z,83.59
2018-01-24T15:36:09.345Z,84.30
2018-01-24T15:38:37.111Z,83.49
2018-01-24T15:41:04.892Z,83.35
2018-01-24T15:43:32.654Z,83.67
2018-01-24T15:46:00.576Z,83.70
2018-01-24T15:48:28.429Z,83.88
2018-01-24T15:50:56.148Z,84.48
2018-01-24T15:53:23.910Z,85.83
2018-01-24T15:55:51.673Z,85.55
2018-01-24T15:58:19.411Z,85.35
2018-01-24T16:00:47.178Z,85.68
2018-01-24T16:03:14.864Z,85.80
2018-01-24T16:05:42.635Z,86.41
2018-01-24T16:08:10.370Z,87.30
2018-01-24T16:10:38.144Z,86.58
2018-01-24T16:13:05.876Z,87.40
2018-01-24T16:15:33.668Z,86.99
2018-01-24T16:18:01.453Z,88.37
2018-01-24T16:20:29.210Z,88.36
2018-01-24T16:22:57.007Z,87.36
2018-01-24T16:25:24.744Z,85.97
2018-01-24T16:27:52.466Z,85.80
2018-01-24T16:30:20.223Z,85.72
2018-01-24T16:32:47.934Z,86.77
2018-01-24T16:35:15.726Z,87.23
2018-01-24T16:37:43.434Z,87.00
2018-01-24T16:40:11.277Z,87.36
2018-01-24T16:42:38.996Z,87.50
2018-01-24T16:45:06.788Z,87.19
2018-01-24T16:47:34.489Z,87.66
2018-01-24T16:50:02.333Z,87.97
2018-01-24T16:52:30.217Z,88.18
2018-01-24T16:54:58.005Z,89.43
2018-01-24T16:57:25.712Z,88.18
2018-01-24T16:59:53.506Z,87.64
2018-01-24T17:02:21.546Z,88.45
2018-01-24T17:04:49.393Z,89.23
2018-01-24T17:07:17.097Z,88.75
2018-01-24T17:09:44.798Z,89.23
2018-01-24T17:12:12.580Z,88.76
2018-01-24T17:14:40.986Z,88.60
2018-01-24T17:17:08.787Z,88.37
2018-01-24T17:19:36.503Z,88.98
2018-01-24T17:22:04.342Z,89.25
2018-01-24T17:24:32.062Z,88.50
2018-01-24T17:26:59.826Z,90.02
2018-01-24T17:29:27.658Z,90.07
2018-01-24T17:31:55.443Z,89.48
2018-01-24T17:34:23.193Z,89.09
2018-01-24T17:36:50.967Z,88.70
2018-01-24T17:39:18.784Z,89.45
2018-01-24T17:41:46.600Z,89.50
2018-01-24T17:44:18.636Z,89.23
2018-01-24T17:46:46.433Z,88.89
2018-01-24T17:49:14.211Z,88.21
2018-01-24T17:51:42.486Z,88.09
2018-01-24T17:54:10.256Z,88.63
2018-01-24T17:56:37.948Z,88.65
2018-01-24T17:59:05.749Z,88.69
2018-01-24T18:01:33.510Z,89.13
2018-01-24T18:04:01.258Z,89.36
2018-01-24T18:06:29.046Z,88.68
2018-01-24T18:08:56.742Z,89.19
2018-01-24T18:11:24.464Z,88.67
2018-01-24T18:13:52.248Z,90.19
2018-01-24T18:16:19.998Z,90.04
2018-01-24T18:18:47.799Z,90.43
2018-01-24T18:21:15.690Z,89.32
2018-01-24T18:23:43.530Z,89.51
2018-01-24T18:26:11.360Z,89.57
2018-01-24T18:28:39.095Z,89.60
2018-01-24T18:31:06.870Z,89.78
2018-01-24T18:33:34.682Z,89.29
2018-01-24T18:36:02.392Z,89.43
2018-01-24T18:38:30.235Z,89.33
2018-01-24T18:40:58.057Z,89.55
2018-01-24T18:43:25.853Z,89.80
2018-01-24T18:45:53.739Z,90.96
2018-01-24T18:48:21.696Z,91.00
2018-01-24T18:50:49.503Z,90.33
2018-01-24T18:53:17.232Z,89.96
2018-01-24T18:55:45.123Z,89.66
2018-01-24T18:58:12.865Z,90.86
2018-01-24T19:00:40.686Z,90.50
2018-01-24T19:03:09.268Z,90.70
2018-01-24T19:05:37.047Z,90.00
2018-01-24T19:08:04.829Z,90.41
2018-01-24T19:10:32.546Z,90.17
2018-01-24T19:13:00.313Z,90.37
2018-01-24T19:15:28.136Z,89.88
2018-01-24T19:17:55.924Z,89.71
2018-01-24T19:20:23.906Z,89.77
2018-01-24T19:22:51.682Z,89.55
2018-01-24T19:25:21.842Z,90.15
2018-01-24T19:27:50.085Z,90.21
2018-01-24T19:30:18.951Z,90.06
2018-01-24T19:32:47.971Z,89.94
2018-01-24T19:35:19.319Z,90.03
2018-01-24T19:37:48.106Z,91.39
2018-01-24T19:40:16.304Z,91.19
2018-01-24T19:42:44.308Z,90.61
2018-01-24T19:45:13.792Z,90.51
2018-01-24T19:47:42.674Z,89.93
2018-01-24T19:50:10.783Z,89.83
2018-01-24T19:52:40.055Z,89.37
2018-01-24T19:55:08.150Z,88.99
2018-01-24T19:57:36.332Z,89.34
2018-01-24T20:00:04.437Z,90.00
2018-01-24T20:02:33.534Z,90.44
2018-01-24T20:05:02.411Z,89.79
2018-01-24T20:07:30.651Z,90.16
2018-01-24T20:09:58.772Z,90.38
2018-01-24T20:12:28.210Z,90.44
2018-01-24T20:14:56.303Z,90.07
2018-01-24T20:17:24.419Z,90.75
2018-01-24T20:19:52.403Z,91.66
2018-01-24T20:22:22.392Z,91.95
2018-01-24T20:24:50.394Z,91.38
2018-01-24T20:27:18.384Z,91.18
2018-01-24T20:29:46.322Z,92.09
2018-01-24T20:32:15.463Z,92.17
2018-01-24T20:34:43.446Z,92.03
2018-01-24T20:37:11.765Z,92.48
2018-01-24T20:39:39.892Z,93.17
2018-01-24T20:42:07.986Z,93.84
2018-01-24T20:44:36.183Z,93.32
2018-01-24T20:47:04.071Z,93.28
2018-01-24T20:49:32.632Z,93.16
2018-01-24T20:52:00.707Z,93.50
2018-01-24T20:54:30.221Z,94.06
2018-01-24T20:56:58.239Z,94.31
2018-01-24T20:59:26.412Z,93.86
2018-01-24T21:01:54.442Z,93.21
2018-01-24T21:04:22.492Z,92.47
2018-01-24T21:06:51.293Z,92.15
2018-01-24T21:09:19.307Z,92.08
2018-01-24T21:11:47.332Z,91.96
2018-01-24T21:14:15.483Z,92.00
2018-01-24T21:16:43.579Z,92.30
2018-01-24T21:19:12.468Z,93.24
2018-01-24T21:21:40.538Z,93.52
2018-01-24T21:24:08.613Z,94.04
2018-01-24T21:26:36.772Z,93.97
2018-01-24T21:29:30.554Z,93.82
2018-01-24T21:32:10.314Z,94.85
2018-01-24T21:34:50.156Z,95.05
2018-01-24T21:37:18.148Z,94.55
2018-01-24T21:39:46.174Z,94.63
2018-01-24T21:42:14.423Z,94.84
2018-01-24T21:44:43.060Z,94.40
2018-01-24T21:47:11.126Z,93.79
2018-01-24T21:49:39.195Z,93.84
2018-01-24T21:52:07.362Z,94.22
2018-01-24T21:54:35.426Z,93.92
2018-01-24T21:57:03.396Z,94.79
2018-01-24T21:59:32.646Z,95.47
2018-01-24T22:02:00.685Z,95.97
2018-01-24T22:04:28.666Z,95.80
2018-01-24T22:06:56.812Z,95.16
2018-01-24T22:09:25.509Z,94.52
2018-01-24T22:11:53.587Z,93.99
2018-01-24T22:14:22.337Z,94.44
2018-01-24T22:16:51.281Z,94.60
2018-01-24T22:19:19.435Z,95.06
2018-01-24T22:21:47.507Z,95.07
2018-01-24T22:24:16.469Z,95.24
2018-01-24T22:26:44.423Z,94.86
2018-01-24T22:29:12.449Z,94.50
2018-01-24T22:31:40.331Z,94.46
2018-01-24T22:34:08.358Z,94.29
2018-01-24T22:36:36.392Z,94.18
2018-01-24T22:39:04.629Z,94.08
2018-01-24T22:41:32.801Z,93.97
2018-01-24T22:44:01.450Z,94.17
2018-01-24T22:46:29.438Z,94.66
2018-01-24T22:48:57.494Z,95.55
2018-01-24T22:51:25.367Z,95.71
2018-01-24T22:53:54.232Z,95.33
2018-01-24T22:56:22.752Z,95.11
2018-01-24T22:58:50.816Z,95.18
2018-01-24T23:01:18.881Z,95.08
2018-01-24T23:03:47.195Z,94.73
2018-01-24T23:06:15.127Z,94.41
2018-01-24T23:08:42.955Z,94.22
2018-01-24T23:11:10.996Z,94.87
2018-01-24T23:13:39.341Z,94.93
2018-01-24T23:16:07.209Z,94.77
2018-01-24T23:18:35.381Z,94.88
2018-01-24T23:21:04.132Z,94.66
2018-01-24T23:23:32.136Z,93.96
2018-01-24T23:26:00.246Z,93.20
2018-01-24T23:28:28.951Z,92.99
2018-01-24T23:30:57.285Z,92.53
2018-01-24T23:33:25.150Z,91.75
2018-01-24T23:35:53.017Z,92.16
2018-01-24T23:38:20.884Z,92.49
2018-01-24T23:40:49.705Z,92.35
2018-01-24T23:43:17.587Z,92.59
2018-01-24T23:45:46.052Z,93.00
2018-01-24T23:48:14.080Z,93.10
2018-01-24T23:50:42.194Z,93.34
2018-01-24T23:53:10.262Z,93.52
2018-01-24T23:55:38.680Z,94.01
2018-01-24T23:58:06.826Z,94.26
